Airfield :
LOGIN :

Register | Disclaimer

   EN    FR    IT 

 










Legend :    VFR   Marginal VFR   IFR   Intensive IFR   Very Intensive IFR
Visi :
Ceiling :
>= 8 km
>= 3000ft
5 to 8 km
1000 to 3000 ft
1500m to 5 km
500 to 1000 ft
800 to 1500m
200 to 500 ft
< 800m
< 200 ft
Symbols :   Thunderstorms  Fog  Heavy snow  Heavy precipitations  Wind > 20 kt
SIGMETs :     Misc.  Thunderstorms  Icing  Turbulence  Mountain Waves  Volcanic Ashes







- Airport Elevation : 16 ft
- IATA code : EAS


LESO - San Sebastian Fuenterrabia

CURRENT METAR :
  • 180330Z 17003KT 130V210 9999 SCT010 13/12 Q1014

EXPIRED METARs :
  • 180300Z AUTO 24003KT 180V300 9999 SCT023/// SCT031/// 13/13 Q1014
  • 180230Z AUTO 00000KT 8000 FEW011/// 13/13 Q1015
  • 180200Z AUTO VRB02KT 6000 FEW015/// 13/12 Q1015
  • 180130Z AUTO 27002KT 6000 SCT011/// 13/13 Q1015
  • 180100Z AUTO 00000KT 7000 FEW013/// 14/13 Q1015

TAF TAF LESO
Valid from the 18 at 00:00 until the 19 at 00:00 UTC


172300Z 1800/1824 VRB04KT 8000 SCT010 TX19/1814Z TN13/1806Z
PROB30
TEMPO 1803/1809 3000 BR BKN010
PROB40
TEMPO 1818/1824 BKN014
No reported NOTAMs for that airfield.
1 SIGMET reported for the Madrid FIR (LECM) :
 
Embedded thunderstorms
LECM SIGMET 3 VALID 180300/180500 LEVA
LECM MADRID FIR/UIR EMBD TS OBS AT 0204Z W OF LINE N4040 W00420 - N3550 W00550 TOP FL300 MOV ENE 20KT NC=



MET'MAP, your aeronautical weather chart ! - Copyright ORBIFLY December 2007 - Disclaimer

ORBIFLY MET'MAP TEAM :

Programming & Development : Alexandra Zaïnal
Concept & Development : Baudouin d'Aumeries
Co-Development & Prog : Marc-Olivier Méhu
Technical & hardware support : Manuel Goepfert

Contact : metmap@orbifly.com




SOURCES & CREDITS :

   NOAA